Wailuku, HI (96793)

08:59 AM HST die 27o September, anno 2016 (GMT -1000)
Wailuku | | Change Station

Elev 427 ft 20.88 °N, 156.51 °W | Updated 2 seconds ago

Scattered Clouds
Nubes Dispersae
78.8 °F
Feels Like 79 °F
N
8.3
Ventus Variabilis Ventus from Aquilo
Gusts 12.3 mph

Hodie
High -- | Low -- °F
--% Chance of Precip.
Yesterday
High -- | Low -- °F
Precip. -- in
Pressio 29.98 in
Visibilitas 10.0 milia passuum
Clouds Few 3500 ft
Nubes Dispersae 4500 ft
Index Caloris 79 °F
Frigus in quo Ros apparet 56 °F
Umor 45%
Rainfall 0.00 in
Snow Depth Not available.
6:16 AM 6:16 PM
Waning Crescent, 10% visible
METAR PHOG 271854Z 04018G23KT 10SM FEW035 SCT045 28/19 A2996 RMK AO2 SLP151 T02830194 $
Pressio 29.98 in
Visibilitas 10.0 milia passuum
Clouds Few 3500 ft
Nubes Dispersae 4500 ft
Index Caloris 79 °F
Frigus in quo Ros apparet 56 °F
Umor 45%
Rainfall 0.00 in
Snow Depth Not available.
6:16 AM 6:16 PM
Waning Crescent, 10% visible
METAR PHOG 271854Z 04018G23KT 10SM FEW035 SCT045 28/19 A2996 RMK AO2 SLP151 T02830194 $

10-Day Weather Forecast

Almanac

Astronomy

Sep. 27, 2016 Rise Set
Actual Time
Civil Twilight
Nautical Twilight
Astronomical Twilight
Moon
Length Of Visible Light
Length of Day
Tomorrow will be .
, % of the Moon is Illuminated

Today's Extremes

State Highs State Lows

Community

WunderPhotos

Upload Photos

1,942,156 photos uploaded!

WunderBlog® & News

Nearby

Air Quality

  Air Quality AQ Index Pollutant
Not available.

Snow Depth

Station Depth Elevation

Earthquake Activity

City Distance Mag. Time & Date
Minimum magnitude displayed is 2.5.

Coastal Water Temperatures

Locus Calor

Stations

Nearby Weather Stations

Station Location Temp Frigus Venti Frigus in quo Ros apparet Umor Ventus Precip. Elev Renovata Type
                   

Watches & Warnings

There are currently no watches in effect.